createdAt,value
2023-05-05T00:02:59.770Z,100.00
2023-05-05T00:06:17.102Z,100.00
2023-05-05T00:09:33.507Z,100.00
2023-05-05T00:12:50.209Z,100.00
2023-05-05T00:16:06.860Z,100.00
2023-05-05T00:19:23.429Z,100.00
2023-05-05T00:22:40.162Z,100.00
2023-05-05T00:25:56.888Z,100.00
2023-05-05T00:29:13.786Z,100.00
2023-05-05T00:32:30.618Z,100.00
2023-05-05T00:35:47.718Z,100.00
2023-05-05T00:39:04.181Z,100.00
2023-05-05T00:45:52.924Z,100.00
2023-05-05T00:49:10.937Z,100.00
2023-05-05T00:52:27.930Z,100.00
2023-05-05T00:55:47.516Z,100.00
2023-05-05T01:02:20.001Z,100.00
2023-05-05T01:05:43.047Z,100.00
2023-05-05T01:09:09.881Z,100.00
2023-05-05T01:12:31.013Z,100.00
2023-05-05T01:15:52.532Z,100.00
2023-05-05T01:19:21.399Z,100.00
2023-05-05T01:22:46.509Z,100.00
2023-05-05T01:26:48.022Z,100.00
2023-05-05T01:30:19.775Z,100.00
2023-05-05T01:33:44.862Z,100.00
2023-05-05T01:37:10.105Z,100.00
2023-05-05T01:40:32.085Z,100.00
2023-05-05T01:47:07.671Z,100.00
2023-05-05T01:50:26.416Z,100.00
2023-05-05T01:53:44.486Z,100.00
2023-05-05T01:57:04.243Z,100.00
2023-05-05T02:00:23.611Z,100.00
2023-05-05T02:03:39.214Z,100.00
2023-05-05T02:06:58.386Z,100.00
2023-05-05T02:10:18.769Z,100.00
2023-05-05T02:13:38.379Z,100.00
2023-05-05T02:16:55.588Z,100.00
2023-05-05T02:20:15.942Z,100.00
2023-05-05T02:23:33.243Z,100.00
2023-05-05T02:26:53.819Z,100.00
2023-05-05T02:30:15.000Z,100.00
2023-05-05T02:33:35.357Z,100.00
2023-05-05T02:36:55.235Z,100.00
2023-05-05T02:40:16.295Z,100.00
2023-05-05T02:46:50.517Z,100.00
2023-05-05T02:50:07.665Z,100.00
2023-05-05T02:53:27.732Z,100.00
2023-05-05T03:02:09.713Z,100.00
2023-05-05T03:05:31.532Z,100.00
2023-05-05T03:08:53.692Z,100.00
2023-05-05T03:15:27.281Z,100.00
2023-05-05T03:18:46.011Z,100.00
2023-05-05T03:22:02.714Z,100.00
2023-05-05T03:25:20.471Z,100.00
2023-05-05T03:28:37.606Z,100.00
2023-05-05T03:31:55.900Z,100.00
2023-05-05T03:35:15.430Z,100.00
2023-05-05T03:38:33.390Z,100.00
2023-05-05T03:41:52.012Z,100.00
2023-05-05T03:45:09.733Z,100.00
2023-05-05T03:48:27.567Z,100.00
2023-05-05T03:51:44.172Z,100.00
2023-05-05T03:55:01.772Z,100.00
2023-05-05T03:58:18.561Z,100.00
2023-05-05T04:01:36.224Z,100.00
2023-05-05T04:04:54.264Z,100.00
2023-05-05T04:08:11.792Z,100.00
2023-05-05T04:11:29.786Z,100.00
2023-05-05T04:14:47.078Z,100.00
2023-05-05T04:18:04.670Z,100.00
2023-05-05T04:21:21.347Z,100.00
2023-05-05T04:24:38.186Z,100.00
2023-05-05T04:27:54.822Z,100.00
2023-05-05T04:31:12.633Z,100.00
2023-05-05T04:34:30.342Z,100.00
2023-05-05T04:37:47.285Z,100.00
2023-05-05T04:41:09.521Z,100.00
2023-05-05T04:44:26.911Z,100.00
2023-05-05T04:47:49.145Z,100.00
2023-05-05T04:51:06.417Z,100.00
2023-05-05T04:54:23.673Z,100.00
2023-05-05T04:57:41.204Z,100.00
2023-05-05T05:00:57.862Z,100.00
2023-05-05T05:04:14.825Z,100.00
2023-05-05T05:07:33.551Z,100.00
2023-05-05T05:10:51.373Z,100.00
2023-05-05T05:14:07.768Z,100.00
2023-05-05T05:17:25.845Z,100.00
2023-05-05T05:20:42.416Z,100.00
2023-05-05T05:24:00.178Z,100.00
2023-05-05T05:27:18.350Z,100.00
2023-05-05T05:30:35.499Z,100.00
2023-05-05T05:33:53.865Z,100.00
2023-05-05T05:37:11.993Z,100.00
2023-05-05T05:40:28.828Z,100.00
2023-05-05T05:43:49.420Z,100.00
2023-05-05T05:47:06.663Z,100.00
2023-05-05T05:50:27.093Z,100.00
2023-05-05T05:53:44.150Z,100.00
2023-05-05T05:57:03.717Z,100.00
2023-05-05T06:01:21.625Z,100.00
2023-05-05T06:04:39.211Z,100.00
2023-05-05T06:07:55.656Z,100.00
2023-05-05T06:11:13.009Z,100.00
2023-05-05T06:17:46.054Z,100.00
2023-05-05T06:21:03.149Z,100.00
2023-05-05T06:24:20.269Z,100.00
2023-05-05T06:30:53.906Z,100.00
2023-05-05T06:34:10.354Z,100.00
2023-05-05T06:37:29.158Z,100.00
2023-05-05T06:40:51.052Z,100.00
2023-05-05T06:44:07.690Z,100.00
2023-05-05T06:47:24.122Z,100.00
2023-05-05T06:53:53.388Z,100.00
2023-05-05T06:57:10.066Z,100.00
2023-05-05T07:03:41.967Z,100.00
2023-05-05T07:07:00.043Z,100.00
2023-05-05T07:10:19.432Z,100.00
2023-05-05T07:13:35.710Z,100.00
2023-05-05T07:16:54.715Z,100.00
2023-05-05T07:20:15.525Z,100.00
2023-05-05T07:23:32.047Z,100.00
2023-05-05T07:26:49.146Z,100.00
2023-05-05T07:30:10.157Z,100.00
2023-05-05T07:33:26.493Z,100.00
2023-05-05T07:36:40.805Z,100.00
2023-05-05T07:39:57.113Z,100.00
2023-05-05T07:46:29.512Z,100.00
2023-05-05T07:49:48.914Z,100.00
2023-05-05T07:53:13.690Z,100.00
2023-05-05T07:56:21.907Z,100.00
2023-05-05T07:59:41.943Z,100.00
2023-05-05T08:03:02.619Z,100.00
2023-05-05T08:06:26.148Z,100.00
2023-05-05T08:09:45.584Z,100.00
2023-05-05T08:13:01.988Z,100.00
2023-05-05T08:16:19.912Z,100.00
2023-05-05T08:19:36.254Z,100.00
2023-05-05T08:22:52.839Z,100.00
2023-05-05T08:26:10.162Z,100.00
2023-05-05T08:29:26.927Z,100.00
2023-05-05T08:32:43.823Z,100.00
2023-05-05T08:36:00.472Z,100.00
2023-05-05T08:39:17.537Z,100.00
2023-05-05T08:42:38.558Z,100.00
2023-05-05T08:45:57.436Z,100.00
2023-05-05T08:49:19.219Z,99.53
2023-05-05T08:52:40.987Z,99.56
2023-05-05T08:56:01.660Z,98.82
2023-05-05T08:59:19.698Z,96.52
2023-05-05T09:02:37.927Z,97.04
2023-05-05T09:05:56.617Z,95.52
2023-05-05T09:09:14.521Z,94.64
2023-05-05T09:12:32.204Z,96.48
2023-05-05T09:15:48.724Z,97.45
2023-05-05T09:19:12.859Z,93.95
2023-05-05T09:22:41.610Z,94.69
2023-05-05T09:26:13.507Z,94.35
2023-05-05T09:29:30.808Z,95.05
2023-05-05T09:32:59.085Z,92.56
2023-05-05T09:36:16.697Z,95.65
2023-05-05T09:39:36.008Z,95.00
2023-05-05T09:42:52.756Z,95.43
2023-05-05T09:46:17.635Z,97.53
2023-05-05T09:49:37.694Z,96.16
2023-05-05T09:53:04.085Z,97.08
2023-05-05T09:56:21.685Z,98.83
2023-05-05T09:59:39.941Z,96.93
2023-05-05T10:02:56.417Z,97.65
2023-05-05T10:06:13.413Z,99.02
2023-05-05T10:09:30.350Z,99.11
2023-05-05T10:12:47.859Z,97.96
2023-05-05T10:16:05.852Z,100.00
2023-05-05T10:19:24.990Z,98.65
2023-05-05T10:22:43.709Z,100.00
2023-05-05T10:26:07.012Z,100.00
2023-05-05T10:29:29.343Z,100.00
2023-05-05T10:33:07.883Z,97.63
2023-05-05T10:36:13.061Z,100.00
2023-05-05T10:39:30.522Z,99.04
2023-05-05T10:46:04.513Z,99.53
2023-05-05T10:49:27.712Z,100.00
2023-05-05T10:52:49.216Z,99.29
2023-05-05T10:56:20.245Z,100.00
2023-05-05T11:02:52.358Z,100.00
2023-05-05T11:06:24.764Z,100.00
2023-05-05T11:09:43.735Z,100.00
2023-05-05T11:16:52.793Z,100.00
2023-05-05T11:20:11.293Z,100.00
2023-05-05T11:23:35.609Z,100.00
2023-05-05T11:27:11.786Z,100.00
2023-05-05T11:30:54.637Z,100.00
2023-05-05T11:34:33.415Z,100.00
2023-05-05T11:38:11.928Z,100.00
2023-05-05T11:41:43.066Z,100.00
2023-05-05T11:45:02.853Z,100.00
2023-05-05T11:48:36.189Z,100.00
2023-05-05T11:52:02.809Z,100.00
2023-05-05T11:55:21.774Z,100.00
2023-05-05T11:58:36.081Z,100.00
2023-05-05T12:01:52.409Z,100.00
2023-05-05T12:05:16.474Z,100.00
2023-05-05T12:08:54.574Z,100.00
2023-05-05T12:12:16.839Z,100.00
2023-05-05T12:18:55.470Z,100.00
2023-05-05T12:22:14.473Z,100.00
2023-05-05T12:25:30.993Z,100.00
2023-05-05T12:28:57.785Z,100.00
2023-05-05T12:32:16.450Z,100.00
2023-05-05T12:35:34.942Z,100.00
2023-05-05T12:38:51.166Z,100.00
2023-05-05T12:42:16.142Z,100.00
2023-05-05T12:45:32.716Z,100.00
2023-05-05T12:48:50.472Z,100.00
2023-05-05T12:52:08.776Z,100.00
2023-05-05T12:55:25.361Z,100.00
2023-05-05T13:02:03.246Z,100.00
2023-05-05T13:05:20.932Z,100.00
2023-05-05T13:08:52.922Z,100.00
2023-05-05T13:12:12.062Z,100.00
2023-05-05T13:15:28.891Z,100.00
2023-05-05T13:18:55.365Z,100.00
2023-05-05T13:22:12.084Z,100.00
2023-05-05T13:25:28.487Z,100.00
2023-05-05T13:28:45.570Z,100.00
2023-05-05T13:32:02.019Z,98.70
2023-05-05T13:35:19.042Z,99.05
2023-05-05T13:38:35.813Z,99.83
2023-05-05T13:41:52.427Z,99.00
2023-05-05T13:45:10.407Z,97.69
2023-05-05T13:48:29.838Z,97.98
2023-05-05T13:51:47.716Z,98.08
2023-05-05T13:55:04.503Z,96.84
2023-05-05T13:58:21.165Z,97.31
2023-05-05T14:01:38.040Z,98.16
2023-05-05T14:04:57.013Z,97.43
2023-05-05T14:08:14.124Z,97.46
2023-05-05T14:11:32.512Z,95.21
2023-05-05T14:14:48.842Z,96.18
2023-05-05T14:18:05.438Z,98.04
2023-05-05T14:21:21.848Z,96.74
2023-05-05T14:24:38.301Z,96.97
2023-05-05T14:27:54.815Z,95.97
2023-05-05T14:31:13.154Z,96.38
2023-05-05T14:34:29.641Z,97.36
2023-05-05T14:37:46.611Z,97.15
2023-05-05T14:41:03.217Z,96.43
2023-05-05T14:44:19.657Z,96.84
2023-05-05T14:47:36.653Z,97.90
2023-05-05T14:50:53.089Z,97.99
2023-05-05T14:54:24.130Z,97.41
2023-05-05T14:57:26.346Z,96.43
2023-05-05T15:00:42.436Z,98.24
2023-05-05T15:03:58.924Z,99.36
2023-05-05T15:07:15.299Z,100.00
2023-05-05T15:10:32.435Z,100.00
2023-05-05T15:17:07.471Z,98.40
2023-05-05T15:20:24.011Z,99.25
2023-05-05T15:23:41.079Z,98.75
2023-05-05T15:26:57.571Z,99.23
2023-05-05T15:33:31.224Z,99.65
2023-05-05T15:36:47.608Z,99.84
2023-05-05T15:40:06.910Z,100.00
2023-05-05T15:43:23.409Z,100.00
2023-05-05T15:50:44.571Z,100.00
2023-05-05T15:54:01.235Z,99.85
2023-05-05T15:57:19.185Z,99.85
2023-05-05T16:00:37.343Z,99.15
2023-05-05T16:03:53.835Z,99.64
2023-05-05T16:07:10.450Z,99.42
2023-05-05T16:10:27.409Z,99.71
2023-05-05T16:19:07.469Z,100.00
2023-05-05T16:22:23.948Z,99.99
2023-05-05T16:25:40.440Z,100.00
2023-05-05T16:28:57.048Z,100.00
2023-05-05T16:32:13.899Z,99.92
2023-05-05T16:35:30.643Z,99.85
2023-05-05T16:38:47.294Z,100.00
2023-05-05T16:42:52.767Z,99.91
2023-05-05T16:46:07.028Z,99.91
2023-05-05T16:49:25.087Z,100.00
2023-05-05T16:52:42.064Z,100.00
2023-05-05T16:56:02.122Z,100.00
2023-05-05T16:59:20.149Z,100.00
2023-05-05T17:02:36.677Z,100.00
2023-05-05T17:05:54.691Z,100.00
2023-05-05T17:09:11.672Z,100.00
2023-05-05T17:12:28.479Z,100.00
2023-05-05T17:15:45.560Z,100.00
2023-05-05T17:19:03.404Z,100.00
2023-05-05T17:22:19.900Z,100.00
2023-05-05T17:25:36.369Z,100.00
2023-05-05T17:28:52.819Z,100.00
2023-05-05T17:35:17.640Z,100.00
2023-05-05T17:38:38.628Z,100.00
2023-05-05T17:41:55.330Z,100.00
2023-05-05T17:45:13.366Z,100.00
2023-05-05T17:48:31.092Z,100.00
2023-05-05T17:51:47.912Z,100.00
2023-05-05T17:55:05.772Z,100.00
2023-05-05T17:58:21.564Z,100.00
2023-05-05T18:01:38.235Z,100.00
2023-05-05T18:04:54.678Z,100.00
2023-05-05T18:08:11.328Z,100.00
2023-05-05T18:11:42.167Z,100.00
2023-05-05T18:14:55.868Z,100.00
2023-05-05T18:18:13.120Z,100.00
2023-05-05T18:21:35.604Z,100.00
2023-05-05T18:25:03.178Z,100.00
2023-05-05T18:28:22.540Z,100.00
2023-05-05T18:31:39.298Z,100.00
2023-05-05T18:34:55.873Z,100.00
2023-05-05T18:38:12.184Z,100.00
2023-05-05T18:41:31.664Z,100.00
2023-05-05T18:48:04.577Z,100.00
2023-05-05T18:51:20.938Z,100.00
2023-05-05T18:54:38.012Z,100.00
2023-05-05T18:57:54.617Z,100.00
2023-05-05T19:04:31.738Z,100.00
2023-05-05T19:07:47.571Z,100.00
2023-05-05T19:11:04.525Z,100.00
2023-05-05T19:17:38.009Z,100.00
2023-05-05T19:21:09.117Z,100.00
2023-05-05T19:24:36.599Z,100.00
2023-05-05T19:27:53.534Z,100.00
2023-05-05T19:31:10.137Z,100.00
2023-05-05T19:34:26.898Z,100.00
2023-05-05T19:37:44.325Z,100.00
2023-05-05T19:41:01.506Z,100.00
2023-05-05T19:50:44.769Z,100.00
2023-05-05T19:54:01.382Z,100.00
2023-05-05T19:57:18.168Z,100.00
2023-05-05T20:00:34.967Z,100.00
2023-05-05T20:03:51.952Z,100.00
2023-05-05T20:07:09.147Z,100.00
2023-05-05T20:10:27.605Z,100.00
2023-05-05T20:13:44.056Z,100.00
2023-05-05T20:17:00.576Z,100.00
2023-05-05T20:20:21.296Z,100.00
2023-05-05T20:23:39.183Z,100.00
2023-05-05T20:26:56.446Z,100.00
2023-05-05T20:30:16.190Z,100.00
2023-05-05T20:33:33.222Z,100.00
2023-05-05T20:36:49.684Z,100.00
2023-05-05T20:40:07.090Z,100.00
2023-05-05T20:43:24.122Z,100.00
2023-05-05T20:49:57.237Z,100.00
2023-05-05T20:53:15.973Z,100.00
2023-05-05T20:56:32.735Z,100.00
2023-05-05T21:03:05.951Z,100.00
2023-05-05T21:06:24.014Z,100.00
2023-05-05T21:09:40.801Z,100.00
2023-05-05T21:12:57.684Z,100.00
2023-05-05T21:19:31.172Z,100.00
2023-05-05T21:22:48.892Z,100.00
2023-05-05T21:26:05.586Z,100.00
2023-05-05T21:34:14.739Z,100.00
2023-05-05T21:37:31.913Z,100.00
2023-05-05T21:40:48.538Z,100.00
2023-05-05T21:44:05.738Z,100.00
2023-05-05T21:50:40.109Z,100.00
2023-05-05T21:53:58.228Z,100.00
2023-05-05T21:57:14.852Z,100.00
2023-05-05T22:03:48.331Z,100.00
2023-05-05T22:07:06.589Z,100.00
2023-05-05T22:10:24.140Z,100.00
2023-05-05T22:13:41.936Z,100.00
2023-05-05T22:17:04.044Z,100.00
2023-05-05T22:20:22.569Z,100.00
2023-05-05T22:23:41.430Z,100.00
2023-05-05T22:26:58.380Z,100.00
2023-05-05T22:30:17.931Z,100.00
2023-05-05T22:33:34.827Z,100.00
2023-05-05T22:36:51.323Z,100.00
2023-05-05T22:40:09.668Z,100.00
2023-05-05T22:43:27.577Z,100.00
2023-05-05T22:46:45.239Z,100.00
2023-05-05T22:50:05.057Z,100.00
2023-05-05T22:53:21.473Z,100.00
2023-05-05T22:56:37.987Z,100.00
2023-05-05T23:03:11.213Z,100.00
2023-05-05T23:06:29.333Z,100.00
2023-05-05T23:09:46.185Z,100.00
2023-05-05T23:13:02.667Z,100.00
2023-05-05T23:19:35.965Z,100.00
2023-05-05T23:22:52.346Z,100.00
2023-05-05T23:26:09.434Z,100.00
2023-05-05T23:29:26.073Z,100.00
2023-05-05T23:32:43.795Z,100.00
2023-05-05T23:36:15.338Z,100.00
2023-05-05T23:39:32.162Z,100.00
2023-05-05T23:42:49.134Z,100.00
2023-05-05T23:46:05.710Z,100.00
2023-05-05T23:49:22.288Z,100.00
2023-05-05T23:52:39.158Z,100.00
2023-05-05T23:55:56.262Z,100.00
2023-05-05T23:59:12.574Z,100.00
